createdAt,value
2022-11-05T00:01:53.315Z,100479.72
2022-11-05T00:04:39.033Z,100477.81
2022-11-05T00:07:47.296Z,100484.88
2022-11-05T00:10:19.724Z,100487.59
2022-11-05T00:13:05.566Z,100487.50
2022-11-05T00:15:51.649Z,100494.47
2022-11-05T00:18:19.094Z,100500.56
2022-11-05T00:20:46.328Z,100499.00
2022-11-05T00:23:31.950Z,100502.34
2022-11-05T00:26:07.769Z,100495.50
2022-11-05T00:28:35.784Z,100495.31
2022-11-05T00:31:13.558Z,100502.66
2022-11-05T00:33:42.787Z,100508.78
2022-11-05T00:36:13.254Z,100513.06
2022-11-05T00:38:40.556Z,100514.78
2022-11-05T00:41:08.181Z,100519.09
2022-11-05T00:43:54.017Z,100517.38
2022-11-05T00:46:21.218Z,100513.22
2022-11-05T00:49:08.770Z,100517.38
2022-11-05T00:51:36.109Z,100521.13
2022-11-05T00:54:03.365Z,100524.34
2022-11-05T00:56:31.823Z,100527.78
2022-11-05T00:58:59.028Z,100525.38
2022-11-05T01:01:26.314Z,100530.53
2022-11-05T01:03:54.030Z,100530.69
2022-11-05T01:06:21.265Z,100534.69
2022-11-05T01:08:49.791Z,100535.63
2022-11-05T01:11:34.506Z,100544.50
2022-11-05T01:14:07.774Z,100549.94
2022-11-05T01:16:35.577Z,100548.44
2022-11-05T01:19:03.438Z,100548.47
2022-11-05T01:21:30.657Z,100551.22
2022-11-05T01:23:57.907Z,100555.81
2022-11-05T01:26:25.184Z,100562.84
2022-11-05T01:28:53.819Z,100555.84
2022-11-05T01:31:21.405Z,100560.34
2022-11-05T01:33:48.672Z,100554.56
2022-11-05T01:36:15.938Z,100565.25
2022-11-05T01:38:43.168Z,100553.91
2022-11-05T01:41:10.438Z,100568.84
2022-11-05T01:43:56.433Z,100577.53
2022-11-05T01:46:31.505Z,100577.84
2022-11-05T01:49:07.279Z,100579.75
2022-11-05T01:51:34.523Z,100584.19
2022-11-05T01:54:05.092Z,100587.72
2022-11-05T01:56:38.421Z,100591.28
2022-11-05T01:59:15.313Z,100595.72
2022-11-05T02:01:43.055Z,100596.75
2022-11-05T02:04:16.702Z,100595.03
2022-11-05T02:06:46.223Z,100598.53
2022-11-05T02:09:18.468Z,100598.75
2022-11-05T02:11:46.091Z,100597.84
2022-11-05T02:14:13.361Z,100599.50
2022-11-05T02:16:46.619Z,100596.19
2022-11-05T02:20:00.799Z,100602.69
2022-11-05T02:23:01.831Z,100614.94
2022-11-05T02:25:59.913Z,100606.78
2022-11-05T02:28:54.655Z,100615.63
2022-11-05T02:31:40.398Z,100614.59
2022-11-05T02:34:16.055Z,100617.03
2022-11-05T02:36:50.757Z,100624.97
2022-11-05T02:39:23.996Z,100631.00
2022-11-05T02:42:15.917Z,100620.28
2022-11-05T02:44:55.956Z,100624.78
2022-11-05T02:47:34.058Z,100634.44
2022-11-05T02:50:24.150Z,100635.88
2022-11-05T02:53:17.289Z,100634.91
2022-11-05T02:55:54.088Z,100637.47
2022-11-05T02:58:21.636Z,100637.38
2022-11-05T03:00:56.446Z,100636.34
2022-11-05T03:03:37.362Z,100638.31
2022-11-05T03:06:32.338Z,100642.91
2022-11-05T03:09:13.928Z,100644.94
2022-11-05T03:12:09.340Z,100642.44
2022-11-05T03:14:42.451Z,100656.63
2022-11-05T03:17:40.715Z,100654.84
2022-11-05T03:20:15.136Z,100657.66
2022-11-05T03:23:10.910Z,100653.41
2022-11-05T03:25:46.922Z,100652.59
2022-11-05T03:28:17.270Z,100664.91
2022-11-05T03:30:45.933Z,100661.56
2022-11-05T03:33:18.192Z,100669.53
2022-11-05T03:35:48.454Z,100676.50
2022-11-05T03:38:29.441Z,100675.78
2022-11-05T03:40:59.101Z,100677.59
2022-11-05T03:43:30.183Z,100685.63
2022-11-05T03:46:01.078Z,100686.50
2022-11-05T03:48:29.444Z,100679.75
2022-11-05T03:51:28.589Z,100692.00
2022-11-05T03:54:02.999Z,100703.50
2022-11-05T03:56:53.589Z,100701.72
2022-11-05T03:59:21.116Z,100704.41
2022-11-05T04:01:48.736Z,100706.94
2022-11-05T04:04:16.250Z,100704.34
2022-11-05T04:07:01.996Z,100713.13
2022-11-05T04:09:47.780Z,100722.22
2022-11-05T04:12:33.425Z,100715.38
2022-11-05T04:15:02.890Z,100711.28
2022-11-05T04:17:30.151Z,100722.75
2022-11-05T04:20:16.242Z,100723.84
2022-11-05T04:23:02.168Z,100729.16
2022-11-05T04:25:29.400Z,100736.13
2022-11-05T04:28:00.535Z,100742.13
2022-11-05T04:30:27.881Z,100740.41
2022-11-05T04:33:11.154Z,100744.81
2022-11-05T04:35:45.449Z,100747.69
2022-11-05T04:38:19.903Z,100749.59
2022-11-05T04:40:48.170Z,100745.41
2022-11-05T04:43:17.522Z,100746.28
2022-11-05T04:45:45.547Z,100750.75
2022-11-05T04:48:13.212Z,100750.75
2022-11-05T04:50:40.495Z,100752.59
2022-11-05T04:53:08.133Z,100757.91
2022-11-05T04:55:35.469Z,100759.63
2022-11-05T04:58:02.654Z,100753.53
2022-11-05T05:00:29.928Z,100753.53
2022-11-05T05:02:57.517Z,100764.09
2022-11-05T05:05:24.777Z,100759.03
2022-11-05T05:07:52.010Z,100757.38
2022-11-05T05:10:19.287Z,100751.25
2022-11-05T05:12:46.551Z,100744.38
2022-11-05T05:15:13.830Z,100757.44
2022-11-05T05:17:40.963Z,100760.97
2022-11-05T05:20:26.858Z,100760.13
2022-11-05T05:22:54.990Z,100762.03
2022-11-05T05:25:22.886Z,100764.56
2022-11-05T05:27:50.118Z,100777.69
2022-11-05T05:30:17.668Z,100771.59
2022-11-05T05:32:44.939Z,100776.88
2022-11-05T05:35:12.360Z,100776.06
2022-11-05T05:37:39.546Z,100787.50
2022-11-05T05:40:07.216Z,100787.47
2022-11-05T05:42:38.752Z,100781.47
2022-11-05T05:45:09.725Z,100790.13
2022-11-05T05:47:37.043Z,100789.28
2022-11-05T05:50:04.559Z,100794.66
2022-11-05T05:52:31.740Z,100799.81
2022-11-05T05:55:01.031Z,100799.81
2022-11-05T05:57:28.166Z,100808.56
2022-11-05T05:59:55.387Z,100813.00
2022-11-05T06:02:23.000Z,100813.88
2022-11-05T06:04:50.477Z,100833.06
2022-11-05T06:07:17.626Z,100824.34
2022-11-05T06:09:44.808Z,100833.06
2022-11-05T06:12:12.564Z,100839.19
2022-11-05T06:14:39.879Z,100847.88
2022-11-05T06:17:10.229Z,100839.16
2022-11-05T06:19:37.401Z,100847.84
2022-11-05T06:22:04.688Z,100847.84
2022-11-05T06:24:31.942Z,100859.25
2022-11-05T06:26:59.653Z,100854.94
2022-11-05T06:29:27.100Z,100860.25
2022-11-05T06:31:54.326Z,100866.34
2022-11-05T06:34:21.587Z,100863.78
2022-11-05T06:36:48.782Z,100879.50
2022-11-05T06:39:15.988Z,100880.28
2022-11-05T06:42:11.760Z,100886.38
2022-11-05T06:44:31.990Z,100894.25
2022-11-05T06:47:00.277Z,100895.19
2022-11-05T06:49:27.462Z,100905.72
2022-11-05T06:51:54.739Z,100899.53
2022-11-05T06:54:21.932Z,100900.28
2022-11-05T06:56:49.109Z,100900.16
2022-11-05T06:59:16.314Z,100900.28
2022-11-05T07:01:43.642Z,100904.53
2022-11-05T07:04:15.567Z,100908.81
2022-11-05T07:06:42.809Z,100908.81
2022-11-05T07:09:10.011Z,100912.47
2022-11-05T07:11:37.216Z,100919.34
2022-11-05T07:14:04.501Z,100927.16
2022-11-05T07:16:31.733Z,100925.50
2022-11-05T07:18:59.114Z,100932.41
2022-11-05T07:21:26.382Z,100937.59
2022-11-05T07:23:53.673Z,100933.19
2022-11-05T07:26:20.866Z,100936.78
2022-11-05T07:28:48.105Z,100948.88
2022-11-05T07:31:15.330Z,100941.00
2022-11-05T07:33:42.699Z,100950.56
2022-11-05T07:36:10.132Z,100954.91
2022-11-05T07:38:37.605Z,100966.22
2022-11-05T07:41:04.927Z,100967.94
2022-11-05T07:43:32.137Z,100964.53
2022-11-05T07:45:59.486Z,100954.91
2022-11-05T07:48:26.710Z,100962.81
2022-11-05T07:50:54.615Z,100958.38
2022-11-05T07:53:21.844Z,100960.97
2022-11-05T07:55:49.094Z,100956.28
2022-11-05T07:58:16.307Z,100957.09
2022-11-05T08:00:43.706Z,100959.50
2022-11-05T08:03:16.867Z,100969.75
2022-11-05T08:05:46.558Z,100965.22
2022-11-05T08:08:14.900Z,100958.84
2022-11-05T08:10:42.758Z,100969.34
2022-11-05T08:13:10.666Z,100965.53
2022-11-05T08:15:38.796Z,100969.47
2022-11-05T08:18:21.700Z,100979.59
2022-11-05T08:20:49.182Z,100985.47
2022-11-05T08:23:16.620Z,100992.34
2022-11-05T08:25:43.874Z,100991.22
2022-11-05T08:28:12.979Z,100991.13
2022-11-05T08:30:40.355Z,100993.59
2022-11-05T08:33:10.754Z,100994.44
2022-11-05T08:35:38.877Z,101004.09
2022-11-05T08:38:07.829Z,100998.06
2022-11-05T08:40:35.987Z,101003.34
2022-11-05T08:43:04.721Z,101012.00
2022-11-05T08:45:32.429Z,101016.25
2022-11-05T08:48:15.024Z,101016.19
2022-11-05T08:50:42.621Z,101020.41
2022-11-05T08:53:10.956Z,101015.84
2022-11-05T08:55:38.770Z,101019.25
2022-11-05T08:58:09.120Z,101019.94
2022-11-05T09:00:37.311Z,101015.28
2022-11-05T09:03:06.432Z,101015.91
2022-11-05T09:05:40.662Z,101021.59
2022-11-05T09:08:11.092Z,101030.09
2022-11-05T09:10:38.774Z,101032.66
2022-11-05T09:13:06.550Z,101040.09
2022-11-05T09:15:35.514Z,101047.09
2022-11-05T09:18:05.551Z,101041.56
2022-11-05T09:20:40.923Z,101047.41
2022-11-05T09:23:09.800Z,101052.41
2022-11-05T09:25:38.671Z,101060.69
2022-11-05T09:28:26.170Z,101062.06
2022-11-05T09:30:53.853Z,101057.72
2022-11-05T09:33:23.202Z,101059.44
2022-11-05T09:35:50.515Z,101066.13
2022-11-05T09:38:17.933Z,101061.19
2022-11-05T09:41:32.987Z,101066.94
2022-11-05T09:44:06.928Z,101067.78
2022-11-05T09:47:00.163Z,101065.75
2022-11-05T09:49:35.159Z,101074.56
2022-11-05T09:52:03.417Z,101065.19
2022-11-05T09:54:33.565Z,101085.50
2022-11-05T09:57:03.319Z,101083.44
2022-11-05T09:59:33.133Z,101075.81
2022-11-05T10:02:23.243Z,101072.44
2022-11-05T10:04:56.459Z,101080.88
2022-11-05T10:07:29.658Z,101078.28
2022-11-05T10:10:03.767Z,101091.31
2022-11-05T10:12:37.104Z,101084.81
2022-11-05T10:15:16.418Z,101087.22
2022-11-05T10:17:57.550Z,101093.03
2022-11-05T10:20:38.577Z,101087.88
2022-11-05T10:23:12.382Z,101084.50
2022-11-05T10:25:42.691Z,101089.03
2022-11-05T10:28:15.055Z,101084.13
2022-11-05T10:30:42.827Z,101084.06
2022-11-05T10:33:12.796Z,101085.28
2022-11-05T10:35:50.544Z,101093.78
2022-11-05T10:38:17.892Z,101092.19
2022-11-05T10:40:53.157Z,101092.19
2022-11-05T10:43:30.449Z,101096.75
2022-11-05T10:46:23.869Z,101104.44
2022-11-05T10:49:03.993Z,101103.78
2022-11-05T10:51:33.143Z,101104.69
2022-11-05T10:54:17.595Z,101105.13
2022-11-05T10:56:45.179Z,101106.81
2022-11-05T10:59:24.203Z,101106.25
2022-11-05T11:02:04.429Z,101109.63
2022-11-05T11:04:37.683Z,101119.91
2022-11-05T11:07:05.674Z,101118.13
2022-11-05T11:09:35.669Z,101117.66
2022-11-05T11:12:17.316Z,101127.84
2022-11-05T11:15:05.360Z,101124.00
2022-11-05T11:17:34.068Z,101120.13
2022-11-05T11:20:23.696Z,101116.50
2022-11-05T11:23:01.635Z,101116.44
2022-11-05T11:26:00.744Z,101119.13
2022-11-05T11:28:40.357Z,101122.34
2022-11-05T11:31:11.867Z,101125.00
2022-11-05T11:33:40.832Z,101118.97
2022-11-05T11:36:10.509Z,101123.44
2022-11-05T11:38:38.189Z,101124.25
2022-11-05T11:41:26.011Z,101124.50
2022-11-05T11:44:13.186Z,101128.00
2022-11-05T11:46:40.823Z,101127.38
2022-11-05T11:49:50.563Z,101123.25
2022-11-05T11:52:34.325Z,101125.56
2022-11-05T11:55:21.049Z,101124.75
2022-11-05T11:58:06.421Z,101125.56
2022-11-05T12:00:39.209Z,101132.06
2022-11-05T12:03:09.825Z,101123.31
2022-11-05T12:05:41.969Z,101135.84
2022-11-05T12:08:30.540Z,101128.47
2022-11-05T12:11:16.574Z,101126.97
2022-11-05T12:14:26.851Z,101128.19
2022-11-05T12:17:10.895Z,101126.63
2022-11-05T12:20:22.571Z,101127.44
2022-11-05T12:23:00.167Z,101122.50
2022-11-05T12:25:32.702Z,101124.00
2022-11-05T12:28:12.064Z,101123.25
2022-11-05T12:31:04.947Z,101127.72
2022-11-05T12:33:56.481Z,101121.09
2022-11-05T12:36:38.993Z,101120.19
2022-11-05T12:39:20.228Z,101115.69
2022-11-05T12:41:54.706Z,101115.69
2022-11-05T12:44:37.297Z,101116.69
2022-11-05T12:47:25.379Z,101112.16
2022-11-05T12:50:18.658Z,101118.31
2022-11-05T12:53:04.695Z,101123.03
2022-11-05T12:55:45.507Z,101128.44
2022-11-05T12:58:26.220Z,101120.63
2022-11-05T13:01:02.947Z,101126.78
2022-11-05T13:03:54.070Z,101127.25
2022-11-05T13:06:48.542Z,101121.66
2022-11-05T13:09:31.867Z,101129.59
2022-11-05T13:12:03.711Z,101128.59
2022-11-05T13:14:47.489Z,101123.41
2022-11-05T13:17:18.879Z,101128.34
2022-11-05T13:19:52.640Z,101131.50
2022-11-05T13:22:39.423Z,101124.00
2022-11-05T13:25:35.213Z,101121.50
2022-11-05T13:28:05.249Z,101119.25
2022-11-05T13:30:38.249Z,101119.69
2022-11-05T13:33:13.014Z,101127.66
2022-11-05T13:36:26.171Z,101129.66
2022-11-05T13:39:16.833Z,101134.78
2022-11-05T13:42:08.989Z,101132.63
2022-11-05T13:45:07.805Z,101141.59
2022-11-05T13:47:50.437Z,101142.53
2022-11-05T13:50:55.527Z,101143.34
2022-11-05T13:53:49.379Z,101147.31
2022-11-05T13:56:39.364Z,101150.50
2022-11-05T13:59:45.611Z,101150.84
2022-11-05T14:02:25.566Z,101154.75
2022-11-05T14:05:00.702Z,101156.84
2022-11-05T14:07:44.141Z,101154.41
2022-11-05T14:10:26.299Z,101154.81
2022-11-05T14:12:54.928Z,101153.31
2022-11-05T14:15:26.197Z,101157.09
2022-11-05T14:18:36.974Z,101164.47
2022-11-05T14:21:05.911Z,101157.69
2022-11-05T14:23:41.233Z,101163.94
2022-11-05T14:26:20.659Z,101162.97
2022-11-05T14:28:50.128Z,101169.19
2022-11-05T14:31:40.976Z,101165.09
2022-11-05T14:34:11.657Z,101162.91
2022-11-05T14:36:40.383Z,101162.25
2022-11-05T14:39:18.876Z,101159.75
2022-11-05T14:41:57.217Z,101164.16
2022-11-05T14:44:25.466Z,101165.03
2022-11-05T14:46:55.486Z,101164.16
2022-11-05T14:49:25.790Z,101161.41
2022-11-05T14:51:55.938Z,101167.81
2022-11-05T14:54:35.784Z,101172.31
2022-11-05T14:57:03.636Z,101176.06
2022-11-05T14:59:35.091Z,101174.53
2022-11-05T15:02:15.691Z,101183.75
2022-11-05T15:04:47.548Z,101179.47
2022-11-05T15:07:34.925Z,101174.31
2022-11-05T15:10:14.580Z,101180.53
2022-11-05T15:13:24.714Z,101188.75
2022-11-05T15:15:55.793Z,101188.97
2022-11-05T15:18:33.979Z,101196.13
2022-11-05T15:21:03.044Z,101184.06
2022-11-05T15:23:36.557Z,101192.03
2022-11-05T15:26:07.441Z,101187.00
2022-11-05T15:29:03.115Z,101193.06
2022-11-05T15:31:31.899Z,101200.88
2022-11-05T15:34:25.809Z,101197.25
2022-11-05T15:37:09.943Z,101205.28
2022-11-05T15:39:45.939Z,101203.72
2022-11-05T15:42:15.250Z,101195.06
2022-11-05T15:44:43.416Z,101196.81
2022-11-05T15:47:16.876Z,101196.94
2022-11-05T15:49:50.012Z,101199.72
2022-11-05T15:52:20.200Z,101202.66
2022-11-05T15:55:05.859Z,101201.94
2022-11-05T15:57:33.348Z,101220.53
2022-11-05T16:00:07.743Z,101219.91
2022-11-05T16:02:36.478Z,101217.38
2022-11-05T16:05:09.336Z,101215.00
2022-11-05T16:07:36.694Z,101208.19
2022-11-05T16:10:07.385Z,101222.31
2022-11-05T16:12:38.855Z,101211.88
2022-11-05T16:15:09.079Z,101211.88
2022-11-05T16:17:57.648Z,101213.53
2022-11-05T16:20:36.150Z,101222.41
2022-11-05T16:23:06.241Z,101217.22
2022-11-05T16:25:43.547Z,101218.72
2022-11-05T16:28:25.237Z,101220.13
2022-11-05T16:31:03.035Z,101212.03
2022-11-05T16:33:46.429Z,101221.81
2022-11-05T16:36:13.896Z,101225.56
2022-11-05T16:38:41.448Z,101224.13
2022-11-05T16:41:14.369Z,101227.06
2022-11-05T16:43:49.555Z,101231.66
2022-11-05T16:46:16.962Z,101240.66
2022-11-05T16:48:44.258Z,101239.03
2022-11-05T16:51:12.181Z,101248.81
2022-11-05T16:53:39.469Z,101245.44
2022-11-05T16:56:08.768Z,101249.00
2022-11-05T16:58:35.962Z,101255.28
2022-11-05T17:01:05.661Z,101264.19
2022-11-05T17:03:32.895Z,101264.25
2022-11-05T17:06:04.150Z,101268.75
2022-11-05T17:08:31.693Z,101269.72
2022-11-05T17:10:58.957Z,101268.94
2022-11-05T17:13:26.202Z,101269.03
2022-11-05T17:15:53.726Z,101269.94
2022-11-05T17:18:23.664Z,101278.78
2022-11-05T17:20:53.382Z,101273.69
2022-11-05T17:23:22.821Z,101273.78
2022-11-05T17:25:58.213Z,101279.09
2022-11-05T17:28:36.615Z,101280.91
2022-11-05T17:31:08.029Z,101286.28
2022-11-05T17:33:35.257Z,101298.59
2022-11-05T17:36:09.658Z,101292.47
2022-11-05T17:38:37.074Z,101295.25
2022-11-05T17:41:19.084Z,101296.16
2022-11-05T17:43:46.841Z,101301.53
2022-11-05T17:46:16.905Z,101312.94
2022-11-05T17:48:44.853Z,101304.25
2022-11-05T17:51:15.157Z,101303.44
2022-11-05T17:53:42.943Z,101310.50
2022-11-05T17:56:11.320Z,101309.69
2022-11-05T17:58:39.180Z,101314.97
2022-11-05T18:01:08.369Z,101306.31
2022-11-05T18:03:35.809Z,101312.47
2022-11-05T18:06:07.645Z,101308.22
2022-11-05T18:08:34.983Z,101310.00
2022-11-05T18:11:03.931Z,101310.03
2022-11-05T18:13:31.074Z,101304.84
2022-11-05T18:15:58.309Z,101304.97
2022-11-05T18:18:25.491Z,101299.72
2022-11-05T18:20:52.708Z,101297.13
2022-11-05T18:23:19.916Z,101300.69
2022-11-05T18:25:47.096Z,101300.78
2022-11-05T18:28:14.680Z,101299.91
2022-11-05T18:30:42.191Z,101303.50
2022-11-05T18:33:09.955Z,101296.53
2022-11-05T18:35:44.373Z,101303.56
2022-11-05T18:38:11.789Z,101297.47
2022-11-05T18:40:39.225Z,101300.16
2022-11-05T18:43:06.391Z,101291.47
2022-11-05T18:45:33.693Z,101300.25
2022-11-05T18:48:02.080Z,101291.53
2022-11-05T18:50:29.996Z,101303.78
2022-11-05T18:52:57.510Z,101302.06
2022-11-05T18:55:25.300Z,101297.75
2022-11-05T18:57:52.520Z,101304.72
2022-11-05T19:00:20.214Z,101308.22
2022-11-05T19:02:47.509Z,101306.47
2022-11-05T19:05:28.616Z,101303.88
2022-11-05T19:07:56.841Z,101310.88
2022-11-05T19:10:24.093Z,101307.41
2022-11-05T19:12:51.321Z,101315.34
2022-11-05T19:15:18.679Z,101306.66
2022-11-05T19:17:46.654Z,101313.72
2022-11-05T19:20:13.931Z,101308.53
2022-11-05T19:22:41.126Z,101307.69
2022-11-05T19:25:08.590Z,101317.31
2022-11-05T19:27:37.457Z,101306.94
2022-11-05T19:30:05.585Z,101318.41
2022-11-05T19:32:32.734Z,101316.72
2022-11-05T19:34:59.958Z,101318.50
2022-11-05T19:37:27.322Z,101320.28
2022-11-05T19:39:54.491Z,101319.41
2022-11-05T19:42:21.985Z,101301.19
2022-11-05T19:44:49.157Z,101302.13
2022-11-05T19:47:16.401Z,101296.13
2022-11-05T19:49:43.640Z,101299.69
2022-11-05T19:52:10.937Z,101306.66
2022-11-05T19:54:40.497Z,101306.66
2022-11-05T19:57:07.717Z,101306.69
2022-11-05T19:59:35.185Z,101311.03
2022-11-05T20:02:02.513Z,101306.75
2022-11-05T20:04:29.824Z,101307.63
2022-11-05T20:06:57.175Z,101316.41
2022-11-05T20:09:25.845Z,101323.38
2022-11-05T20:11:54.791Z,101319.06
2022-11-05T20:14:23.028Z,101325.19
2022-11-05T20:16:50.869Z,101322.59
2022-11-05T20:19:20.184Z,101319.13
2022-11-05T20:21:47.678Z,101328.72
2022-11-05T20:24:22.465Z,101330.47
2022-11-05T20:26:56.114Z,101330.47
2022-11-05T20:29:26.021Z,101334.84
2022-11-05T20:31:57.027Z,101338.38
2022-11-05T20:34:24.885Z,101338.41
2022-11-05T20:36:52.086Z,101348.03
2022-11-05T20:39:21.153Z,101346.28
2022-11-05T20:41:48.326Z,101341.97
2022-11-05T20:44:15.604Z,101344.59
2022-11-05T20:46:42.780Z,101335.00
2022-11-05T20:49:09.960Z,101341.97
2022-11-05T20:51:37.302Z,101337.59
2022-11-05T20:54:05.349Z,101335.88
2022-11-05T20:56:35.308Z,101335.88
2022-11-05T20:59:03.323Z,101340.22
2022-11-05T21:01:32.315Z,101339.38
2022-11-05T21:03:59.858Z,101338.53
2022-11-05T21:06:27.089Z,101350.69
2022-11-05T21:08:54.578Z,101344.56
2022-11-05T21:11:22.153Z,101352.44
2022-11-05T21:13:49.647Z,101357.63
2022-11-05T21:16:18.844Z,101348.06
2022-11-05T21:18:47.271Z,101348.97
2022-11-05T21:21:17.433Z,101359.38
2022-11-05T21:23:44.887Z,101360.25
2022-11-05T21:26:14.314Z,101360.25
2022-11-05T21:28:42.525Z,101355.00
2022-11-05T21:31:10.111Z,101346.34
2022-11-05T21:33:37.600Z,101337.63
2022-11-05T21:36:09.951Z,101332.38
2022-11-05T21:38:40.683Z,101343.72
2022-11-05T21:41:08.609Z,101341.13
2022-11-05T21:43:37.155Z,101335.00
2022-11-05T21:46:05.098Z,101335.00
2022-11-05T21:48:32.636Z,101337.59
2022-11-05T21:51:20.459Z,101340.22
2022-11-05T21:54:06.551Z,101336.75
2022-11-05T21:56:52.810Z,101338.50
2022-11-05T21:59:40.763Z,101338.47
2022-11-05T22:02:09.138Z,101339.38
2022-11-05T22:04:41.234Z,101336.75
2022-11-05T22:07:09.895Z,101337.59
2022-11-05T22:09:37.475Z,101341.06
2022-11-05T22:12:05.437Z,101339.34
2022-11-05T22:14:32.937Z,101341.97
2022-11-05T22:17:00.303Z,101341.09
2022-11-05T22:19:27.801Z,101341.13
2022-11-05T22:21:54.934Z,101341.97
2022-11-05T22:24:22.285Z,101339.38
2022-11-05T22:26:49.528Z,101329.81
2022-11-05T22:29:17.102Z,101336.75
2022-11-05T22:31:44.286Z,101337.66
2022-11-05T22:34:12.125Z,101330.69
2022-11-05T22:36:39.805Z,101335.91
2022-11-05T22:39:07.360Z,101335.94
2022-11-05T22:41:34.857Z,101338.53
2022-11-05T22:44:03.471Z,101342.88
2022-11-05T22:46:31.313Z,101335.94
2022-11-05T22:48:59.021Z,101335.06
2022-11-05T22:51:28.642Z,101348.09
2022-11-05T22:53:56.096Z,101335.91
2022-11-05T22:56:25.161Z,101345.47
2022-11-05T22:58:52.776Z,101337.66
2022-11-05T23:01:22.067Z,101341.13
2022-11-05T23:03:49.805Z,101336.78
2022-11-05T23:06:38.266Z,101342.00
2022-11-05T23:09:31.552Z,101332.41
2022-11-05T23:11:59.088Z,101328.06
2022-11-05T23:14:26.765Z,101330.66
2022-11-05T23:17:12.660Z,101327.19
2022-11-05T23:19:59.252Z,101340.25
2022-11-05T23:22:47.637Z,101335.06
2022-11-05T23:25:22.055Z,101340.25
2022-11-05T23:27:50.720Z,101335.06
2022-11-05T23:30:20.617Z,101322.84
2022-11-05T23:32:48.916Z,101335.91
2022-11-05T23:35:17.800Z,101341.09
2022-11-05T23:38:03.501Z,101331.53
2022-11-05T23:40:51.528Z,101330.69
2022-11-05T23:43:37.293Z,101335.06
2022-11-05T23:46:23.211Z,101326.34
2022-11-05T23:48:52.476Z,101327.22
2022-11-05T23:51:19.646Z,101329.84
2022-11-05T23:53:46.996Z,101322.91
2022-11-05T23:56:15.202Z,101323.78
2022-11-05T23:58:42.985Z,101319.44
